createdAt,value
2018-10-19T00:02:07.278Z,72.22
2018-10-19T00:04:34.447Z,72.99
2018-10-19T00:07:01.587Z,73.09
2018-10-19T00:09:28.752Z,73.13
2018-10-19T00:11:55.926Z,72.56
2018-10-19T00:14:23.081Z,72.97
2018-10-19T00:16:50.234Z,72.32
2018-10-19T00:19:17.366Z,73.30
2018-10-19T00:21:44.521Z,73.54
2018-10-19T00:24:11.642Z,73.66
2018-10-19T00:26:38.781Z,73.54
2018-10-19T00:29:05.952Z,73.23
2018-10-19T00:31:33.042Z,73.72
2018-10-19T00:34:00.171Z,73.82
2018-10-19T00:36:27.309Z,73.38
2018-10-19T00:38:54.474Z,73.16
2018-10-19T00:41:21.623Z,73.71
2018-10-19T00:43:49.017Z,74.24
2018-10-19T00:46:16.184Z,73.82
2018-10-19T00:48:43.297Z,73.10
2018-10-19T00:51:10.608Z,73.23
2018-10-19T00:53:37.685Z,73.38
2018-10-19T00:56:04.867Z,73.30
2018-10-19T00:58:32.038Z,73.00
2018-10-19T01:00:59.273Z,73.10
2018-10-19T01:03:26.429Z,73.42
2018-10-19T01:05:53.591Z,73.64
2018-10-19T01:08:20.767Z,74.01
2018-10-19T01:10:47.913Z,73.81
2018-10-19T01:13:15.096Z,73.73
2018-10-19T01:15:42.236Z,73.44
2018-10-19T01:18:09.433Z,73.76
2018-10-19T01:20:36.616Z,73.51
2018-10-19T01:23:04.229Z,73.03
2018-10-19T01:25:31.366Z,71.45
2018-10-19T01:27:58.496Z,71.44
2018-10-19T01:30:25.746Z,71.68
2018-10-19T01:32:52.969Z,72.14
2018-10-19T01:35:20.095Z,73.07
2018-10-19T01:37:47.290Z,73.29
2018-10-19T01:40:14.468Z,74.56
2018-10-19T01:42:41.653Z,75.79
2018-10-19T01:45:10.744Z,75.65
2018-10-19T01:47:38.330Z,75.45
2018-10-19T01:50:05.765Z,73.47
2018-10-19T01:52:32.909Z,72.80
2018-10-19T01:55:00.062Z,72.40
2018-10-19T01:57:27.255Z,72.92
2018-10-19T01:59:54.430Z,73.34
2018-10-19T02:02:21.690Z,72.99
2018-10-19T02:04:48.926Z,73.27
2018-10-19T02:07:16.049Z,73.33
2018-10-19T02:09:43.195Z,73.20
2018-10-19T02:12:10.346Z,72.54
2018-10-19T02:14:38.077Z,72.35
2018-10-19T02:17:05.996Z,72.63
2018-10-19T02:19:33.096Z,73.25
2018-10-19T02:22:00.198Z,73.26
2018-10-19T02:24:27.351Z,72.87
2018-10-19T02:26:54.587Z,73.86
2018-10-19T02:29:21.675Z,73.85
2018-10-19T02:31:48.836Z,73.82
2018-10-19T02:34:15.996Z,74.59
2018-10-19T02:36:43.662Z,74.59
2018-10-19T02:39:10.879Z,74.51
2018-10-19T02:41:38.018Z,73.85
2018-10-19T02:44:05.313Z,74.55
2018-10-19T02:46:32.488Z,74.20
2018-10-19T02:48:59.640Z,74.94
2018-10-19T02:51:26.817Z,75.49
2018-10-19T02:53:53.962Z,74.86
2018-10-19T02:56:21.132Z,75.24
2018-10-19T02:58:48.444Z,74.58
2018-10-19T03:01:15.984Z,74.76
2018-10-19T03:03:43.182Z,74.97
2018-10-19T03:06:10.333Z,75.31
2018-10-19T03:08:37.517Z,74.85
2018-10-19T03:11:05.056Z,75.55
2018-10-19T03:13:32.158Z,75.20
2018-10-19T03:15:59.285Z,75.89
2018-10-19T03:18:26.471Z,76.04
2018-10-19T03:20:53.669Z,75.86
2018-10-19T03:23:20.806Z,76.00
2018-10-19T03:25:47.923Z,76.05
2018-10-19T03:28:15.115Z,74.79
2018-10-19T03:30:42.276Z,75.81
2018-10-19T03:33:09.437Z,75.45
2018-10-19T03:35:36.607Z,74.88
2018-10-19T03:38:04.154Z,75.68
2018-10-19T03:40:31.303Z,74.43
2018-10-19T03:42:58.489Z,74.66
2018-10-19T03:45:25.690Z,74.96
2018-10-19T03:47:52.865Z,75.29
2018-10-19T03:50:20.008Z,75.75
2018-10-19T03:52:47.170Z,75.05
2018-10-19T03:55:14.345Z,74.69
2018-10-19T03:57:41.491Z,75.04
2018-10-19T04:00:08.654Z,75.00
2018-10-19T04:02:35.813Z,75.52
2018-10-19T04:05:03.018Z,74.69
2018-10-19T04:07:30.225Z,74.48
2018-10-19T04:09:57.448Z,75.10
2018-10-19T04:12:24.716Z,75.02
2018-10-19T04:14:51.851Z,74.96
2018-10-19T04:17:19.002Z,75.21
2018-10-19T04:19:46.137Z,75.46
2018-10-19T04:22:13.290Z,75.03
2018-10-19T04:24:40.429Z,74.74
2018-10-19T04:27:07.828Z,74.08
2018-10-19T04:29:34.888Z,74.71
2018-10-19T04:32:02.024Z,75.52
2018-10-19T04:34:29.342Z,74.95
2018-10-19T04:37:01.872Z,75.16
2018-10-19T04:39:29.065Z,74.96
2018-10-19T04:41:56.363Z,74.71
2018-10-19T04:44:23.613Z,74.84
2018-10-19T04:46:50.766Z,74.71
2018-10-19T04:49:17.922Z,74.55
2018-10-19T04:51:45.114Z,75.46
2018-10-19T04:54:12.373Z,75.06
2018-10-19T04:56:39.551Z,75.52
2018-10-19T04:59:06.857Z,75.03
2018-10-19T05:01:34.039Z,74.83
2018-10-19T05:04:01.182Z,75.12
2018-10-19T05:06:28.573Z,74.30
2018-10-19T05:08:55.726Z,74.09
2018-10-19T05:11:22.893Z,74.25
2018-10-19T05:13:50.071Z,74.48
2018-10-19T05:16:17.422Z,74.62
2018-10-19T05:18:44.606Z,74.66
2018-10-19T05:21:11.858Z,74.81
2018-10-19T05:23:39.335Z,74.81
2018-10-19T05:26:06.691Z,75.10
2018-10-19T05:28:34.066Z,74.58
2018-10-19T05:31:01.270Z,75.07
2018-10-19T05:33:28.707Z,75.21
2018-10-19T05:35:56.112Z,75.57
2018-10-19T05:38:23.533Z,74.96
2018-10-19T05:40:50.686Z,75.43
2018-10-19T05:43:17.895Z,74.80
2018-10-19T05:45:45.249Z,75.07
2018-10-19T05:48:12.499Z,75.22
2018-10-19T05:50:39.664Z,75.23
2018-10-19T05:53:06.873Z,74.74
2018-10-19T05:55:34.016Z,74.92
2018-10-19T05:58:01.274Z,75.37
2018-10-19T06:00:28.511Z,76.04
2018-10-19T06:02:55.662Z,75.14
2018-10-19T06:05:22.826Z,75.24
2018-10-19T06:07:50.099Z,74.92
2018-10-19T06:10:18.240Z,74.73
2018-10-19T06:12:45.472Z,74.47
2018-10-19T06:15:12.877Z,74.90
2018-10-19T06:17:40.092Z,74.44
2018-10-19T06:20:07.414Z,75.22
2018-10-19T06:22:34.512Z,74.84
2018-10-19T06:25:01.751Z,74.76
2018-10-19T06:27:28.977Z,74.55
2018-10-19T06:29:57.236Z,74.56
2018-10-19T06:32:24.460Z,74.04
2018-10-19T06:34:51.626Z,74.40
2018-10-19T06:37:18.854Z,74.45
2018-10-19T06:39:46.299Z,74.73
2018-10-19T06:42:13.562Z,74.70
2018-10-19T06:44:40.814Z,75.07
2018-10-19T06:47:08.215Z,74.79
2018-10-19T06:49:35.470Z,74.76
2018-10-19T06:52:02.782Z,75.43
2018-10-19T06:54:30.240Z,75.37
2018-10-19T06:56:57.618Z,75.30
2018-10-19T06:59:24.904Z,75.75
2018-10-19T07:01:52.226Z,76.17
2018-10-19T07:04:19.371Z,76.05
2018-10-19T07:06:47.207Z,75.65
2018-10-19T07:09:14.606Z,75.41
2018-10-19T07:11:41.895Z,75.52
2018-10-19T07:14:09.151Z,75.15
2018-10-19T07:16:36.331Z,76.22
2018-10-19T07:23:56.307Z,75.23
2018-10-19T07:26:23.534Z,75.64
2018-10-19T07:28:50.773Z,75.69
2018-10-19T07:31:18.984Z,75.02
2018-10-19T07:33:46.153Z,74.78
2018-10-19T07:36:13.397Z,74.25
2018-10-19T07:38:40.634Z,75.37
2018-10-19T07:41:07.971Z,75.66
2018-10-19T07:43:35.186Z,75.18
2018-10-19T07:46:02.541Z,75.40
2018-10-19T07:48:29.869Z,75.41
2018-10-19T07:50:57.104Z,75.24
2018-10-19T07:53:24.864Z,75.94
2018-10-19T07:55:53.133Z,76.42
2018-10-19T07:58:20.586Z,75.99
2018-10-19T08:00:49.030Z,76.19
2018-10-19T08:03:16.294Z,76.39
2018-10-19T08:05:43.563Z,76.06
2018-10-19T08:08:11.191Z,75.85
2018-10-19T08:10:39.256Z,76.04
2018-10-19T08:13:06.755Z,76.50
2018-10-19T08:15:34.011Z,75.47
2018-10-19T08:18:01.259Z,75.26
2018-10-19T08:20:28.546Z,75.55
2018-10-19T08:22:55.851Z,75.14
2018-10-19T08:25:23.234Z,74.87
2018-10-19T08:27:50.462Z,75.20
2018-10-19T08:30:17.663Z,75.12
2018-10-19T08:32:45.793Z,75.01
2018-10-19T08:35:13.175Z,74.78
2018-10-19T08:37:40.530Z,74.76
2018-10-19T08:40:07.675Z,74.86
2018-10-19T08:42:35.127Z,74.53
2018-10-19T08:45:02.400Z,74.14
2018-10-19T08:47:29.715Z,74.22
2018-10-19T08:49:56.859Z,74.30
2018-10-19T08:52:24.019Z,74.12
2018-10-19T08:54:51.741Z,74.76
2018-10-19T08:57:18.918Z,74.28
2018-10-19T08:59:46.919Z,74.12
2018-10-19T09:02:14.199Z,74.23
2018-10-19T09:04:41.509Z,73.41
2018-10-19T09:07:08.742Z,73.83
2018-10-19T09:09:35.966Z,73.86
2018-10-19T09:12:03.338Z,73.76
2018-10-19T09:14:41.961Z,72.93
2018-10-19T09:17:09.240Z,73.13
2018-10-19T09:19:36.491Z,72.63
2018-10-19T09:22:03.676Z,72.23
2018-10-19T09:24:30.969Z,73.07
2018-10-19T09:26:58.370Z,71.56
2018-10-19T09:29:25.625Z,72.21
2018-10-19T09:31:52.865Z,71.94
2018-10-19T09:34:20.135Z,71.94
2018-10-19T09:36:47.701Z,72.00
2018-10-19T09:39:15.722Z,70.75
2018-10-19T09:41:43.103Z,70.97
2018-10-19T09:44:10.349Z,71.11
2018-10-19T09:46:39.325Z,70.85
2018-10-19T09:49:07.857Z,69.84
2018-10-19T09:51:35.510Z,70.17
2018-10-19T09:54:02.775Z,69.46
2018-10-19T09:56:29.966Z,70.19
2018-10-19T09:58:57.216Z,70.60
2018-10-19T10:01:28.361Z,69.20
2018-10-19T10:03:55.663Z,69.29
2018-10-19T10:06:23.127Z,68.74
2018-10-19T10:08:50.356Z,69.31
2018-10-19T10:11:17.777Z,68.26
2018-10-19T10:13:45.399Z,68.56
2018-10-19T10:16:12.663Z,68.17
2018-10-19T10:18:40.205Z,67.79
2018-10-19T10:21:07.891Z,66.83
2018-10-19T10:23:35.099Z,66.94
2018-10-19T10:26:02.231Z,66.89
2018-10-19T10:28:29.621Z,66.63
2018-10-19T10:30:56.996Z,65.76
2018-10-19T10:33:24.350Z,65.98
2018-10-19T10:35:51.662Z,66.05
2018-10-19T10:38:18.993Z,66.61
2018-10-19T10:40:46.658Z,65.34
2018-10-19T10:43:14.095Z,66.02
2018-10-19T10:45:41.267Z,65.55
2018-10-19T10:48:08.617Z,64.90
2018-10-19T10:50:35.939Z,64.97
2018-10-19T10:53:03.204Z,64.18
2018-10-19T10:55:30.457Z,64.21
2018-10-19T10:57:57.820Z,63.76
2018-10-19T11:00:25.077Z,63.61
2018-10-19T11:02:53.106Z,64.06
2018-10-19T11:05:20.384Z,63.53
2018-10-19T11:07:49.776Z,63.71
2018-10-19T11:10:17.106Z,62.28
2018-10-19T11:12:44.171Z,61.76
2018-10-19T11:15:12.646Z,61.16
2018-10-19T11:17:40.804Z,61.63
2018-10-19T11:20:08.050Z,61.09
2018-10-19T11:22:35.370Z,61.64
2018-10-19T11:25:02.671Z,60.71
2018-10-19T11:27:29.935Z,60.26
2018-10-19T11:29:57.433Z,59.85
2018-10-19T11:32:24.630Z,60.00
2018-10-19T11:34:51.834Z,59.61
2018-10-19T11:37:19.176Z,60.60
2018-10-19T11:39:58.383Z,59.90
2018-10-19T11:42:26.843Z,60.08
2018-10-19T11:44:54.232Z,59.27
2018-10-19T11:47:21.960Z,60.04
2018-10-19T11:49:49.146Z,59.25
2018-10-19T11:52:16.403Z,58.35
2018-10-19T11:54:43.645Z,58.21
2018-10-19T11:57:11.528Z,57.79
2018-10-19T11:59:38.630Z,57.83
2018-10-19T12:02:06.665Z,58.00
2018-10-19T12:04:34.308Z,56.48
2018-10-19T12:07:01.812Z,56.43
2018-10-19T12:09:28.975Z,56.19
2018-10-19T12:11:56.195Z,56.46
2018-10-19T12:14:23.371Z,55.70
2018-10-19T12:16:51.131Z,55.66
2018-10-19T12:19:22.608Z,55.32
2018-10-19T12:21:50.126Z,55.19
2018-10-19T12:24:17.750Z,55.50
2018-10-19T12:26:45.045Z,54.97
2018-10-19T12:29:12.251Z,54.90
2018-10-19T12:31:40.563Z,53.65
2018-10-19T12:34:08.980Z,53.71
2018-10-19T12:36:36.578Z,53.58
2018-10-19T12:39:06.654Z,54.43
2018-10-19T12:41:34.352Z,53.44
2018-10-19T12:44:01.550Z,53.67
2018-10-19T12:46:42.181Z,53.39
2018-10-19T12:49:11.286Z,52.97
2018-10-19T12:51:39.232Z,52.39
2018-10-19T12:54:13.309Z,52.08
2018-10-19T12:56:41.113Z,53.06
2018-10-19T12:59:08.453Z,52.94
2018-10-19T13:01:35.917Z,53.71
2018-10-19T13:04:03.458Z,53.09
2018-10-19T13:06:30.797Z,53.07
2018-10-19T13:08:58.168Z,53.02
2018-10-19T13:11:25.831Z,52.18
2018-10-19T13:13:53.311Z,52.42
2018-10-19T13:16:20.872Z,52.15
2018-10-19T13:18:48.158Z,51.65
2018-10-19T13:21:15.438Z,51.48
2018-10-19T13:23:42.733Z,51.38
2018-10-19T13:26:10.257Z,50.83
2018-10-19T13:28:37.524Z,50.94
2018-10-19T13:31:04.859Z,49.92
2018-10-19T13:33:33.177Z,50.96
2018-10-19T13:36:00.458Z,50.16
2018-10-19T13:38:27.641Z,49.38
2018-10-19T13:40:55.416Z,49.20
2018-10-19T13:43:23.040Z,49.33
2018-10-19T13:45:50.758Z,50.50
2018-10-19T13:48:18.509Z,50.60
2018-10-19T13:50:46.232Z,50.65
2018-10-19T13:53:13.905Z,50.24
2018-10-19T13:55:41.099Z,50.73
2018-10-19T13:58:08.386Z,49.44
2018-10-19T14:00:35.753Z,49.70
2018-10-19T14:03:03.104Z,48.89
2018-10-19T14:05:30.661Z,48.80
2018-10-19T14:07:57.852Z,49.68
2018-10-19T14:10:25.208Z,50.01
2018-10-19T14:12:52.483Z,51.22
2018-10-19T14:15:19.844Z,51.58
2018-10-19T14:17:47.210Z,51.44
2018-10-19T14:20:14.824Z,52.47
2018-10-19T14:22:42.087Z,52.36
2018-10-19T14:25:11.489Z,52.09
2018-10-19T14:27:40.014Z,52.94
2018-10-19T14:30:10.350Z,53.17
2018-10-19T14:32:39.277Z,53.19
2018-10-19T14:35:06.863Z,53.29
2018-10-19T14:37:34.869Z,52.89
2018-10-19T14:40:02.112Z,52.58
2018-10-19T14:42:29.485Z,53.31
2018-10-19T14:44:56.811Z,53.17
2018-10-19T14:47:24.136Z,52.63
2018-10-19T14:49:51.606Z,53.08
2018-10-19T14:52:18.880Z,53.52
2018-10-19T14:54:46.297Z,53.98
2018-10-19T14:57:13.767Z,53.46
2018-10-19T14:59:45.090Z,53.97
2018-10-19T15:02:12.278Z,54.81
2018-10-19T15:04:39.466Z,54.70
2018-10-19T15:07:06.622Z,54.94
2018-10-19T15:09:33.832Z,54.20
2018-10-19T15:12:01.015Z,54.25
2018-10-19T15:14:29.131Z,55.08
2018-10-19T15:16:56.409Z,54.77
2018-10-19T15:19:25.399Z,54.72
2018-10-19T15:21:52.706Z,55.57
2018-10-19T15:24:19.998Z,55.70
2018-10-19T15:26:47.253Z,55.69
2018-10-19T15:29:15.493Z,54.58
2018-10-19T15:31:42.862Z,55.41
2018-10-19T15:34:10.128Z,56.24
2018-10-19T15:36:37.538Z,55.31
2018-10-19T15:39:07.638Z,55.81
2018-10-19T15:41:34.915Z,55.70
2018-10-19T15:44:02.144Z,56.36
2018-10-19T15:46:29.465Z,56.02
2018-10-19T15:48:56.634Z,56.18
2018-10-19T15:51:23.837Z,56.45
2018-10-19T15:53:51.381Z,57.23
2018-10-19T15:56:18.696Z,57.43
2018-10-19T15:58:45.980Z,57.08
2018-10-19T16:01:13.252Z,56.78
2018-10-19T16:03:40.715Z,57.66
2018-10-19T16:06:08.257Z,57.65
2018-10-19T16:08:35.665Z,57.51
2018-10-19T16:11:02.939Z,57.51
2018-10-19T16:13:30.615Z,57.74
2018-10-19T16:15:58.346Z,57.34
2018-10-19T16:18:28.532Z,58.35
2018-10-19T16:20:56.234Z,58.18
2018-10-19T16:23:24.709Z,57.76
2018-10-19T16:25:55.370Z,58.37
2018-10-19T16:28:24.508Z,58.94
2018-10-19T16:30:51.965Z,58.99
2018-10-19T16:33:19.778Z,58.81
2018-10-19T16:35:48.711Z,59.43
2018-10-19T16:38:16.230Z,59.68
2018-10-19T16:40:43.523Z,60.43
2018-10-19T16:43:10.882Z,60.21
2018-10-19T16:45:38.859Z,59.74
2018-10-19T16:48:06.953Z,59.86
2018-10-19T16:50:34.222Z,60.73
2018-10-19T16:53:01.573Z,60.77
2018-10-19T16:55:28.728Z,61.30
2018-10-19T16:57:56.017Z,61.43
2018-10-19T17:00:23.304Z,61.06
2018-10-19T17:02:50.708Z,60.86
2018-10-19T17:05:17.942Z,61.02
2018-10-19T17:07:45.148Z,61.73
2018-10-19T17:10:12.416Z,62.51
2018-10-19T17:12:40.676Z,62.43
2018-10-19T17:15:09.760Z,61.91
2018-10-19T17:17:37.480Z,62.51
2018-10-19T17:20:05.075Z,63.06
2018-10-19T17:22:32.421Z,62.75
2018-10-19T17:25:00.241Z,63.07
2018-10-19T17:27:27.701Z,63.74
2018-10-19T17:29:55.211Z,63.48
2018-10-19T17:32:22.773Z,64.30
2018-10-19T17:34:50.428Z,64.54
2018-10-19T17:37:17.714Z,64.95
2018-10-19T17:39:46.525Z,65.43
2018-10-19T17:42:13.773Z,65.94
2018-10-19T17:44:41.465Z,65.74
2018-10-19T17:47:09.658Z,65.21
2018-10-19T17:50:03.624Z,65.35
2018-10-19T17:52:31.132Z,66.54
2018-10-19T17:54:58.432Z,65.83
2018-10-19T17:57:26.143Z,66.71
2018-10-19T17:59:53.362Z,66.15
2018-10-19T18:02:20.504Z,66.50
2018-10-19T18:04:48.106Z,66.71
2018-10-19T18:07:18.371Z,66.86
2018-10-19T18:09:47.006Z,66.67
2018-10-19T18:12:14.346Z,67.34
2018-10-19T18:14:41.612Z,67.36
2018-10-19T18:17:08.924Z,66.95
2018-10-19T18:19:36.255Z,67.50
2018-10-19T18:24:39.358Z,68.73
2018-10-19T18:27:06.673Z,68.56
2018-10-19T18:29:33.826Z,69.10
2018-10-19T18:32:01.125Z,68.40
2018-10-19T18:34:28.363Z,68.45
2018-10-19T18:36:55.642Z,67.98
2018-10-19T18:39:22.962Z,68.88
2018-10-19T18:41:50.293Z,68.77
2018-10-19T18:44:17.598Z,69.27
2018-10-19T18:46:44.766Z,69.18
2018-10-19T18:49:12.091Z,68.98
2018-10-19T18:51:39.527Z,68.97
2018-10-19T18:54:07.024Z,68.81
2018-10-19T18:56:34.466Z,68.93
2018-10-19T18:59:01.819Z,69.17
2018-10-19T19:01:29.242Z,69.35
2018-10-19T19:03:56.670Z,69.25
2018-10-19T19:06:23.995Z,69.28
2018-10-19T19:08:51.503Z,69.30
2018-10-19T19:11:19.004Z,70.24
2018-10-19T19:13:48.329Z,70.56
2018-10-19T19:16:21.478Z,69.88
2018-10-19T19:18:48.852Z,70.00
2018-10-19T19:21:16.179Z,70.40
2018-10-19T19:23:49.073Z,69.75
2018-10-19T19:26:20.130Z,69.70
2018-10-19T19:31:26.006Z,71.01
2018-10-19T19:33:59.163Z,71.12
2018-10-19T19:36:26.504Z,71.60
2018-10-19T19:38:53.957Z,71.55
2018-10-19T19:41:27.066Z,71.54
2018-10-19T19:43:54.382Z,72.08
2018-10-19T19:46:21.671Z,71.95
2018-10-19T19:48:54.523Z,71.82
2018-10-19T19:51:21.670Z,71.67
2018-10-19T19:53:49.128Z,71.64
2018-10-19T19:56:16.425Z,72.06
2018-10-19T19:58:44.569Z,72.04
2018-10-19T20:01:11.999Z,72.86
2018-10-19T20:03:47.762Z,72.90
2018-10-19T20:06:15.222Z,72.33
2018-10-19T20:08:42.419Z,72.75
2018-10-19T20:11:09.703Z,72.24
2018-10-19T20:13:36.871Z,72.60
2018-10-19T20:16:04.384Z,73.08
2018-10-19T20:18:31.603Z,72.58
2018-10-19T20:20:58.782Z,73.09
2018-10-19T20:23:26.042Z,72.91
2018-10-19T20:25:53.488Z,72.29
2018-10-19T20:28:20.904Z,72.97
2018-10-19T20:30:48.418Z,72.29
2018-10-19T20:33:15.654Z,72.15
2018-10-19T20:35:42.868Z,72.06
2018-10-19T20:38:10.321Z,72.52
2018-10-19T20:40:37.539Z,72.96
2018-10-19T20:43:05.471Z,72.59
2018-10-19T20:45:32.778Z,73.02
2018-10-19T20:48:00.089Z,73.12
2018-10-19T20:50:27.288Z,72.66
2018-10-19T20:52:54.692Z,72.46
2018-10-19T20:55:22.017Z,72.36
2018-10-19T20:57:49.210Z,72.45
2018-10-19T21:00:17.536Z,72.53
2018-10-19T21:02:45.266Z,71.82
2018-10-19T21:05:12.576Z,73.08
2018-10-19T21:07:39.794Z,73.09
2018-10-19T21:10:09.461Z,72.44
2018-10-19T21:12:37.323Z,72.63
2018-10-19T21:15:05.788Z,72.99
2018-10-19T21:17:33.103Z,73.30
2018-10-19T21:20:00.309Z,72.95
2018-10-19T21:22:27.542Z,72.89
2018-10-19T21:24:54.756Z,74.09
2018-10-19T21:27:22.057Z,73.64
2018-10-19T21:29:49.851Z,73.55
2018-10-19T21:32:17.111Z,73.58
2018-10-19T21:34:44.227Z,73.99
2018-10-19T21:37:11.641Z,73.42
2018-10-19T21:39:38.838Z,73.71
2018-10-19T21:42:06.095Z,73.57
2018-10-19T21:44:33.410Z,73.68
2018-10-19T21:47:00.755Z,73.80
2018-10-19T21:49:27.945Z,73.46
2018-10-19T21:51:55.357Z,73.75
2018-10-19T21:54:22.726Z,73.14
2018-10-19T21:56:49.869Z,73.25
2018-10-19T21:59:17.186Z,73.36
2018-10-19T22:01:44.214Z,74.00
2018-10-19T22:04:11.442Z,74.04
2018-10-19T22:06:38.599Z,73.95
2018-10-19T22:09:09.890Z,74.10
2018-10-19T22:11:37.813Z,73.87
2018-10-19T22:14:04.962Z,73.91
2018-10-19T22:16:32.272Z,74.20
2018-10-19T22:18:59.460Z,74.97
2018-10-19T22:21:26.613Z,75.89
2018-10-19T22:23:53.814Z,75.90
2018-10-19T22:26:21.033Z,75.68
2018-10-19T22:28:48.221Z,74.82
2018-10-19T22:31:15.426Z,74.24
2018-10-19T22:33:42.577Z,74.04
2018-10-19T22:36:09.846Z,74.02
2018-10-19T22:38:37.074Z,73.58
2018-10-19T22:41:04.804Z,73.94
2018-10-19T22:43:32.060Z,73.75
2018-10-19T22:45:59.286Z,73.16
2018-10-19T22:48:26.434Z,73.58
2018-10-19T22:50:53.631Z,73.73
2018-10-19T22:53:20.781Z,73.60
2018-10-19T22:55:47.990Z,73.05
2018-10-19T22:58:15.240Z,73.03
2018-10-19T23:00:42.383Z,72.99
2018-10-19T23:03:09.589Z,73.02
2018-10-19T23:05:36.799Z,73.10
2018-10-19T23:08:04.509Z,73.55
2018-10-19T23:10:31.701Z,73.63
2018-10-19T23:12:59.014Z,73.81
2018-10-19T23:15:26.152Z,74.04
2018-10-19T23:17:53.310Z,73.85
2018-10-19T23:20:20.622Z,73.76
2018-10-19T23:22:47.854Z,73.62
2018-10-19T23:25:15.103Z,74.73
2018-10-19T23:27:42.407Z,74.71
2018-10-19T23:30:09.549Z,73.91
2018-10-19T23:32:36.758Z,74.38
2018-10-19T23:35:05.359Z,74.25
2018-10-19T23:37:32.566Z,74.65
2018-10-19T23:39:59.808Z,74.10
2018-10-19T23:42:27.074Z,74.07
2018-10-19T23:44:54.309Z,74.11
2018-10-19T23:47:21.454Z,74.09
2018-10-19T23:49:48.635Z,74.09
2018-10-19T23:52:15.825Z,74.41
2018-10-19T23:54:43.007Z,73.98
2018-10-19T23:57:10.269Z,73.31
2018-10-19T23:59:37.570Z,74.36
